55NC weather

Lenoir Memorial Hospital Heliport
Kinston, North Carolina, United States

Public forecast

Using degrees Fahrenheit for public forecast. Weather courtesy of forecast.io.

METAR (pilot weather report)

Closest report is Kinston Regional Jetport At Stallings Field, 2.8 nm (5.1 km) NNW. Retrieved 2019/06/15 20:56 UTC (1 hour ago):

KISO 152056Z 21006KT 10SM CLR 28/14 A3014

TAF (pilot weather forecast)

Closest forecast is Kinston Regional Jetport At Stallings Field, 2.8 nm (5.1 km) NNW. Retrieved 2019/06/15 18:22 UTC (4 hours ago):

TAF KISO 151720Z 1518/1618 18007G14KT P6SM FEW250 FM160100 17008KT P6SM FEW025 FEW250 FM161400 23008G13KT P6SM FEW250 AMD LTD TO CLD VIS AND WIND